Golden Shores, Arizona
Current Conditions -  °F | °C
As of 1:56 AM on Monday 24 Nov 2014 (Local Time) from KEED Reporting Station
Clear Clear  
Wind Chill: 42°   Ceiling: Unl
Heat Index: 46°   Visibility: 10mi
Dew Point:   Wind: 7mph
Humidity: 21%   Direction: 250°WSW
Pressure: 30.22"   Gusts: NA
Location:  34.7791°N, 114.467°W
Report Text: KEED 240856Z AUTO 25006KT 10SM CLR 08/M13 A3022 RMK AO2 SLP223 T00781133 50001
Loading
Personal Weather Stations






























Interactive Weather Map New forecast layout! Learn more

10-Day Weather Forecast

Advertisements
Track Severe Weather on mobile